Terminal Aerodrome Forecast
Issued by NWS

Home | Current Version | Previous Version | Text Only | Print | Product List | Glossary On
Versions: 1 2 3 4 5 6 7 8 9 10 11 12
000
FTUS44 KLIX 151741
TAFHUM
TAF
KHUM 151741Z 1518/1618 36008KT P6SM -RA SCT070 OVC100
     FM152000 02009KT P6SM BKN080 OVC150
     FM152300 02005KT P6SM BKN080 OVC150=

USA.gov is the U.S. government's official web portal to all federal, state and local government web resources and services.